KPHD

Harry Clever Field Airport

New Philadelphia, Ohio, USA
METAR KPHD 191453Z AUTO 20006KT 10SM CLR M04/M12 A3013 RMK AO2 SLP216 T10391117 51001
Observed Flight Rules
Jan-19 @ 14:53 UTC (38 minutes ago) Visual Flight Rules
Wind Visibility Clouds
200° at 6 knots 10 miles
  • Clear skies
Temperatures Readings
Current -4°C / 25°F
Dewpoint -12°C / 10°F
Humidity 54%
Altimeter 30.13" Hg
Pressure 1021.6 hPa
Elevation 272
METAR KPHD 191453Z AUTO 20006KT 10SM CLR M04/M12 A3013 RMK AO2 SLP216 T10391117 51001
Observed Flight Rules
Jan-19 @ 14:53 UTC
(38 minutes ago)
VFR
Wind Visibility
200° at 6 knots 10 miles
Clouds
  • Clear skies
Temperature Dewpoint
-4°C / 25°F -12°C / 10°F
Humidity Altimeter Pressure
54% 30.13" Hg 1021.6 hPa